createdAt,value
2023-01-21T00:01:10.307Z,96740.72
2023-01-21T00:03:37.389Z,96742.91
2023-01-21T00:06:04.964Z,96742.16
2023-01-21T00:08:32.302Z,96733.72
2023-01-21T00:11:06.608Z,96717.09
2023-01-21T00:13:35.256Z,96730.38
2023-01-21T00:16:04.528Z,96735.25
2023-01-21T00:18:31.804Z,96729.44
2023-01-21T00:20:58.757Z,96731.97
2023-01-21T00:23:26.378Z,96724.94
2023-01-21T00:26:01.138Z,96725.13
2023-01-21T00:28:29.793Z,96722.38
2023-01-21T00:31:02.398Z,96728.41
2023-01-21T00:33:30.612Z,96736.16
2023-01-21T00:36:01.516Z,96735.59
2023-01-21T00:38:28.874Z,96736.56
2023-01-21T00:41:03.992Z,96737.28
2023-01-21T00:43:31.292Z,96748.31
2023-01-21T00:45:58.719Z,96743.31
2023-01-21T00:48:25.883Z,96743.94
2023-01-21T00:50:54.769Z,96752.16
2023-01-21T00:53:23.826Z,96744.97
2023-01-21T00:55:50.858Z,96746.34
2023-01-21T00:58:18.061Z,96756.19
2023-01-21T01:00:45.086Z,96753.59
2023-01-21T01:03:11.912Z,96754.75
2023-01-21T01:05:39.006Z,96755.56
2023-01-21T01:08:05.866Z,96765.16
2023-01-21T01:10:32.890Z,96753.94
2023-01-21T01:13:01.004Z,96746.44
2023-01-21T01:15:27.777Z,96767.88
2023-01-21T01:17:54.509Z,96763.38
2023-01-21T01:20:21.494Z,96771.78
2023-01-21T01:22:48.416Z,96765.69
2023-01-21T01:25:15.651Z,96759.75
2023-01-21T01:27:42.381Z,96759.91
2023-01-21T01:30:10.120Z,96761.56
2023-01-21T01:32:37.155Z,96763.53
2023-01-21T01:35:04.473Z,96768.88
2023-01-21T01:37:31.373Z,96750.31
2023-01-21T01:39:58.239Z,96749.50
2023-01-21T01:42:25.077Z,96743.47
2023-01-21T01:45:06.421Z,96747.78
2023-01-21T01:47:40.506Z,96740.59
2023-01-21T01:50:11.820Z,96767.31
2023-01-21T01:52:40.051Z,96752.38
2023-01-21T01:55:08.646Z,96747.31
2023-01-21T01:57:40.533Z,96751.25
2023-01-21T02:00:10.201Z,96749.63
2023-01-21T02:02:43.173Z,96750.19
2023-01-21T02:05:11.665Z,96745.38
2023-01-21T02:07:44.967Z,96746.75
2023-01-21T02:10:14.518Z,96742.91
2023-01-21T02:12:43.895Z,96743.38
2023-01-21T02:15:12.215Z,96745.47
2023-01-21T02:18:11.659Z,96744.97
2023-01-21T02:21:29.081Z,96738.75
2023-01-21T02:24:07.292Z,96734.38
2023-01-21T02:26:59.995Z,96730.66
2023-01-21T02:29:58.098Z,96723.94
2023-01-21T02:32:53.224Z,96717.47
2023-01-21T02:35:56.329Z,96711.84
2023-01-21T02:38:47.043Z,96706.69
2023-01-21T02:41:16.431Z,96698.59
2023-01-21T02:44:10.390Z,96707.22
2023-01-21T02:47:28.890Z,96699.34
2023-01-21T02:50:13.959Z,96705.88
2023-01-21T02:52:40.742Z,96695.72
2023-01-21T02:55:16.850Z,96693.91
2023-01-21T02:57:50.800Z,96697.16
2023-01-21T03:00:23.370Z,96699.31
2023-01-21T03:03:34.918Z,96699.72
2023-01-21T03:06:19.665Z,96707.91
2023-01-21T03:08:54.378Z,96693.16
2023-01-21T03:11:22.460Z,96684.44
2023-01-21T03:14:19.610Z,96691.28
2023-01-21T03:16:58.481Z,96689.19
2023-01-21T03:19:39.051Z,96693.97
2023-01-21T03:22:15.276Z,96682.94
2023-01-21T03:24:47.254Z,96696.25
2023-01-21T03:27:16.946Z,96680.72
2023-01-21T03:29:46.953Z,96677.56
2023-01-21T03:32:18.824Z,96669.56
2023-01-21T03:34:51.588Z,96665.59
2023-01-21T03:37:28.020Z,96673.19
2023-01-21T03:40:21.218Z,96667.56
2023-01-21T03:42:56.305Z,96675.16
2023-01-21T03:45:38.480Z,96674.66
2023-01-21T03:48:22.372Z,96675.19
2023-01-21T03:50:56.918Z,96678.50
2023-01-21T03:53:23.859Z,96682.31
2023-01-21T03:55:52.076Z,96688.53
2023-01-21T03:58:19.142Z,96699.47
2023-01-21T04:00:47.021Z,96711.34
2023-01-21T04:03:14.276Z,96704.97
2023-01-21T04:05:41.142Z,96695.53
2023-01-21T04:08:08.176Z,96704.50
2023-01-21T04:10:35.482Z,96700.47
2023-01-21T04:13:02.848Z,96702.31
2023-01-21T04:15:29.666Z,96699.50
2023-01-21T04:17:56.872Z,96708.00
2023-01-21T04:20:24.206Z,96700.69
2023-01-21T04:22:50.983Z,96696.84
2023-01-21T04:25:17.774Z,96692.34
2023-01-21T04:27:44.753Z,96700.88
2023-01-21T04:30:11.887Z,96695.53
2023-01-21T04:32:38.931Z,96697.00
2023-01-21T04:35:06.203Z,96693.72
2023-01-21T04:37:33.574Z,96699.84
2023-01-21T04:40:00.569Z,96690.63
2023-01-21T04:42:27.497Z,96690.84
2023-01-21T04:44:54.305Z,96690.72
2023-01-21T04:47:21.116Z,96693.63
2023-01-21T04:49:48.927Z,96683.06
2023-01-21T04:52:15.943Z,96682.13
2023-01-21T04:54:42.689Z,96671.66
2023-01-21T04:57:11.141Z,96675.75
2023-01-21T04:59:38.061Z,96683.16
2023-01-21T05:02:04.961Z,96711.75
2023-01-21T05:04:33.046Z,96703.69
2023-01-21T05:06:59.776Z,96697.91
2023-01-21T05:09:26.779Z,96698.97
2023-01-21T05:11:53.635Z,96711.44
2023-01-21T05:14:20.360Z,96713.22
2023-01-21T05:16:47.555Z,96720.59
2023-01-21T05:19:14.478Z,96719.94
2023-01-21T05:21:41.564Z,96719.22
2023-01-21T05:24:11.794Z,96718.81
2023-01-21T05:26:38.704Z,96711.91
2023-01-21T05:29:05.757Z,96722.09
2023-01-21T05:31:33.167Z,96725.59
2023-01-21T05:34:00.384Z,96719.03
2023-01-21T05:36:27.428Z,96727.53
2023-01-21T05:38:54.521Z,96705.44
2023-01-21T05:41:22.009Z,96732.53
2023-01-21T05:43:48.819Z,96714.66
2023-01-21T05:46:16.099Z,96700.75
2023-01-21T05:48:43.005Z,96718.91
2023-01-21T05:51:10.573Z,96706.53
2023-01-21T05:53:40.320Z,96698.94
2023-01-21T05:56:08.380Z,96694.94
2023-01-21T05:58:35.754Z,96695.41
2023-01-21T06:01:03.203Z,96702.38
2023-01-21T06:03:30.540Z,96707.03
2023-01-21T06:05:57.515Z,96711.28
2023-01-21T06:08:24.967Z,96712.03
2023-01-21T06:10:55.253Z,96708.13
2023-01-21T06:13:23.028Z,96700.44
2023-01-21T06:15:50.709Z,96685.13
2023-01-21T06:18:17.523Z,96697.84
2023-01-21T06:20:44.302Z,96697.75
2023-01-21T06:23:14.031Z,96688.06
2023-01-21T06:25:41.490Z,96694.59
2023-01-21T06:28:11.731Z,96697.16
2023-01-21T06:30:39.283Z,96685.22
2023-01-21T06:33:06.374Z,96694.13
2023-01-21T06:35:37.492Z,96680.31
2023-01-21T06:38:05.940Z,96685.84
2023-01-21T06:40:32.711Z,96695.28
2023-01-21T06:42:59.929Z,96679.69
2023-01-21T06:45:27.229Z,96671.94
2023-01-21T06:47:54.170Z,96676.06
2023-01-21T06:50:21.266Z,96680.50
2023-01-21T06:52:49.208Z,96697.84
2023-01-21T06:55:16.318Z,96685.88
2023-01-21T06:57:44.460Z,96690.13
2023-01-21T07:00:13.466Z,96701.38
2023-01-21T07:02:40.823Z,96669.03
2023-01-21T07:05:08.248Z,96694.75
2023-01-21T07:07:35.858Z,96659.75
2023-01-21T07:10:15.563Z,96699.22
2023-01-21T07:12:45.019Z,96702.56
2023-01-21T07:15:13.436Z,96696.78
2023-01-21T07:17:42.059Z,96694.31
2023-01-21T07:20:13.665Z,96689.88
2023-01-21T07:22:41.181Z,96678.75
2023-01-21T07:25:09.356Z,96668.38
2023-01-21T07:27:36.325Z,96664.25
2023-01-21T07:30:03.751Z,96660.78
2023-01-21T07:32:30.712Z,96659.41
2023-01-21T07:34:57.742Z,96661.63
2023-01-21T07:37:26.436Z,96660.94
2023-01-21T07:39:57.620Z,96657.88
2023-01-21T07:42:38.552Z,96663.66
2023-01-21T07:45:06.883Z,96666.94
2023-01-21T07:47:33.728Z,96672.16
2023-01-21T07:50:05.119Z,96667.44
2023-01-21T07:52:35.918Z,96662.41
2023-01-21T07:55:03.447Z,96665.13
2023-01-21T07:57:32.300Z,96671.56
2023-01-21T08:00:00.006Z,96680.66
2023-01-21T08:02:28.211Z,96683.31
2023-01-21T08:04:55.056Z,96690.19
2023-01-21T08:07:21.909Z,96693.56
2023-01-21T08:09:48.677Z,96692.00
2023-01-21T08:12:17.602Z,96697.72
2023-01-21T08:14:45.107Z,96689.44
2023-01-21T08:17:21.110Z,96689.97
2023-01-21T08:19:56.056Z,96685.94
2023-01-21T08:22:23.817Z,96691.63
2023-01-21T08:24:58.509Z,96681.13
2023-01-21T08:27:26.297Z,96694.88
2023-01-21T08:29:54.673Z,96667.97
2023-01-21T08:32:24.067Z,96687.13
2023-01-21T08:34:54.190Z,96682.44
2023-01-21T08:37:21.453Z,96688.53
2023-01-21T08:39:48.406Z,96678.53
2023-01-21T08:42:15.801Z,96686.59
2023-01-21T08:44:58.365Z,96685.13
2023-01-21T08:47:25.222Z,96697.94
2023-01-21T08:49:52.235Z,96694.13
2023-01-21T08:52:20.711Z,96701.19
2023-01-21T08:54:49.735Z,96706.16
2023-01-21T08:57:17.448Z,96699.53
2023-01-21T08:59:44.053Z,96686.94
2023-01-21T09:02:24.308Z,96685.19
2023-01-21T09:05:15.978Z,96687.97
2023-01-21T09:08:07.132Z,96695.19
2023-01-21T09:10:53.981Z,96706.56
2023-01-21T09:13:20.968Z,96697.06
2023-01-21T09:15:47.847Z,96698.59
2023-01-21T09:18:14.906Z,96715.75
2023-01-21T09:20:41.792Z,96702.41
2023-01-21T09:23:24.831Z,96694.75
2023-01-21T09:26:07.374Z,96690.88
2023-01-21T09:28:37.119Z,96707.44
2023-01-21T09:31:07.477Z,96702.50
2023-01-21T09:33:37.692Z,96686.31
2023-01-21T09:36:07.746Z,96688.28
2023-01-21T09:38:35.023Z,96684.66
2023-01-21T09:41:19.270Z,96700.53
2023-01-21T09:44:01.920Z,96682.53
2023-01-21T09:46:40.394Z,96682.41
2023-01-21T09:49:31.885Z,96671.41
2023-01-21T09:52:15.271Z,96676.25
2023-01-21T09:54:43.151Z,96648.25
2023-01-21T09:57:36.652Z,96681.53
2023-01-21T10:00:20.001Z,96663.69
2023-01-21T10:02:52.825Z,96679.25
2023-01-21T10:05:25.829Z,96655.50
2023-01-21T10:08:04.417Z,96629.75
2023-01-21T10:10:41.889Z,96654.16
2023-01-21T10:13:08.870Z,96642.94
2023-01-21T10:15:39.716Z,96655.91
2023-01-21T10:19:31.763Z,96660.69
2023-01-21T10:22:27.203Z,96671.22
2023-01-21T10:25:25.434Z,96656.56
2023-01-21T10:27:54.305Z,96661.00
2023-01-21T10:30:22.921Z,96672.22
2023-01-21T10:32:52.518Z,96677.50
2023-01-21T10:35:39.301Z,96679.16
2023-01-21T10:38:35.120Z,96679.50
2023-01-21T10:51:44.096Z,96659.53
2023-01-21T10:54:29.875Z,96674.41
2023-01-21T10:57:05.339Z,96669.50
2023-01-21T10:59:36.868Z,96652.50
2023-01-21T11:02:10.135Z,96649.72
2023-01-21T11:04:39.861Z,96653.69
2023-01-21T11:07:10.109Z,96636.34
2023-01-21T11:09:43.446Z,96630.75
2023-01-21T11:12:11.980Z,96633.75
2023-01-21T11:14:38.742Z,96634.88
2023-01-21T11:17:17.597Z,96636.88
2023-01-21T11:20:03.341Z,96639.84
2023-01-21T11:22:54.981Z,96630.13
2023-01-21T11:25:28.536Z,96664.25
2023-01-21T11:27:57.731Z,96647.75
2023-01-21T11:30:51.580Z,96655.00
2023-01-21T11:33:27.285Z,96661.78
2023-01-21T11:35:57.205Z,96650.66
2023-01-21T11:38:32.277Z,96654.25
2023-01-21T11:41:09.349Z,96641.69
2023-01-21T11:43:50.275Z,96660.25
2023-01-21T11:46:46.412Z,96658.41
2023-01-21T11:49:15.967Z,96661.56
2023-01-21T11:51:46.167Z,96682.50
2023-01-21T11:54:17.639Z,96702.31
2023-01-21T11:57:01.207Z,96704.59
2023-01-21T11:59:41.834Z,96688.81
2023-01-21T12:06:08.480Z,96691.84
2023-01-21T12:09:31.651Z,96680.19
2023-01-21T12:16:19.175Z,96678.34
2023-01-21T12:19:39.459Z,96683.63
2023-01-21T12:22:45.653Z,96676.88
2023-01-21T12:33:33.902Z,96689.97
2023-01-21T12:36:17.178Z,96680.13
2023-01-21T12:39:21.629Z,96689.75
2023-01-21T12:42:08.317Z,96687.13
2023-01-21T12:44:44.298Z,96679.88
2023-01-21T12:47:19.288Z,96682.00
2023-01-21T12:49:52.859Z,96693.66
2023-01-21T12:52:27.157Z,96705.53
2023-01-21T12:55:39.831Z,96693.66
2023-01-21T12:58:14.317Z,96696.22
2023-01-21T13:00:48.674Z,96694.00
2023-01-21T13:03:50.515Z,96702.97
2023-01-21T13:06:52.798Z,96711.75
2023-01-21T13:09:43.446Z,96727.63
2023-01-21T13:12:20.368Z,96713.41
2023-01-21T13:14:55.394Z,96719.81
2023-01-21T13:17:30.289Z,96712.88
2023-01-21T13:19:57.136Z,96720.69
2023-01-21T13:22:49.106Z,96742.19
2023-01-21T13:25:28.658Z,96731.22
2023-01-21T13:28:21.585Z,96736.03
2023-01-21T13:30:51.835Z,96733.25
2023-01-21T13:33:37.283Z,96730.16
2023-01-21T13:36:47.108Z,96734.38
2023-01-21T13:39:36.987Z,96728.41
2023-01-21T13:42:35.893Z,96728.41
2023-01-21T13:45:02.738Z,96719.91
2023-01-21T13:47:41.925Z,96727.88
2023-01-21T13:50:51.116Z,96733.59
2023-01-21T13:53:41.391Z,96723.06
2023-01-21T13:56:29.961Z,96744.06
2023-01-21T13:58:59.378Z,96749.72
2023-01-21T14:02:18.648Z,96756.88
2023-01-21T14:05:01.157Z,96773.19
2023-01-21T14:07:42.640Z,96767.91
2023-01-21T14:10:40.718Z,96778.78
2023-01-21T14:13:22.812Z,96778.16
2023-01-21T14:16:11.872Z,96769.88
2023-01-21T14:19:00.455Z,96761.28
2023-01-21T14:21:39.477Z,96753.09
2023-01-21T14:24:24.869Z,96753.09
2023-01-21T14:27:20.901Z,96754.69
2023-01-21T14:30:11.884Z,96742.22
2023-01-21T14:32:57.003Z,96739.41
2023-01-21T14:35:36.799Z,96724.38
2023-01-21T14:38:12.670Z,96741.56
2023-01-21T14:41:03.099Z,96743.84
2023-01-21T14:43:33.066Z,96736.31
2023-01-21T14:46:01.331Z,96741.25
2023-01-21T14:48:52.660Z,96749.03
2023-01-21T14:51:22.144Z,96753.72
2023-01-21T14:53:54.443Z,96753.78
2023-01-21T14:56:35.825Z,96745.72
2023-01-21T14:59:24.298Z,96747.69
2023-01-21T15:02:01.255Z,96751.63
2023-01-21T15:04:31.305Z,96749.81
2023-01-21T15:07:07.141Z,96754.38
2023-01-21T15:09:37.512Z,96754.47
2023-01-21T15:12:15.853Z,96753.03
2023-01-21T15:14:43.511Z,96733.56
2023-01-21T15:17:45.870Z,96749.06
2023-01-21T15:20:46.891Z,96749.91
2023-01-21T15:23:32.328Z,96748.84
2023-01-21T15:26:08.632Z,96759.47
2023-01-21T15:28:51.047Z,96757.22
2023-01-21T15:31:20.816Z,96763.22
2023-01-21T15:33:47.546Z,96766.91
2023-01-21T15:36:24.606Z,96768.16
2023-01-21T15:38:54.630Z,96771.44
2023-01-21T15:41:29.166Z,96768.50
2023-01-21T15:44:15.073Z,96780.16
2023-01-21T15:46:52.284Z,96789.16
2023-01-21T15:49:39.894Z,96786.19
2023-01-21T15:52:15.796Z,96776.31
2023-01-21T15:55:11.914Z,96787.47
2023-01-21T15:58:03.751Z,96792.09
2023-01-21T16:00:35.209Z,96792.56
2023-01-21T16:03:11.358Z,96794.75
2023-01-21T16:06:10.636Z,96801.06
2023-01-21T16:09:06.293Z,96803.56
2023-01-21T16:11:42.562Z,96818.88
2023-01-21T16:14:27.771Z,96825.84
2023-01-21T16:17:03.591Z,96836.19
2023-01-21T16:19:36.855Z,96843.94
2023-01-21T16:22:08.034Z,96841.00
2023-01-21T16:24:40.507Z,96850.25
2023-01-21T16:27:17.147Z,96859.50
2023-01-21T16:29:44.224Z,96857.16
2023-01-21T16:32:19.868Z,96853.13
2023-01-21T16:34:47.869Z,96856.28
2023-01-21T16:37:16.373Z,96861.16
2023-01-21T16:39:44.452Z,96856.56
2023-01-21T16:42:44.296Z,96867.41
2023-01-21T16:45:20.118Z,96869.06
2023-01-21T16:47:57.084Z,96875.47
2023-01-21T16:50:34.556Z,96857.09
2023-01-21T16:53:08.236Z,96868.50
2023-01-21T16:55:45.489Z,96869.50
2023-01-21T16:58:32.677Z,96881.78
2023-01-21T17:01:08.608Z,96870.59
2023-01-21T17:03:36.596Z,96870.25
2023-01-21T17:06:37.742Z,96875.72
2023-01-21T17:08:59.623Z,96890.72
2023-01-21T17:11:27.279Z,96889.06
2023-01-21T17:13:54.304Z,96886.50
2023-01-21T17:16:27.746Z,96892.38
2023-01-21T17:19:18.374Z,96902.63
2023-01-21T17:21:49.986Z,96903.97
2023-01-21T17:24:27.804Z,96917.44
2023-01-21T17:26:57.082Z,96909.59
2023-01-21T17:29:32.171Z,96905.09
2023-01-21T17:32:05.013Z,96922.41
2023-01-21T17:34:33.754Z,96921.41
2023-01-21T17:37:00.851Z,96905.97
2023-01-21T17:39:49.704Z,96928.34
2023-01-21T17:42:21.426Z,96942.50
2023-01-21T17:44:55.972Z,96919.13
2023-01-21T17:47:34.691Z,96942.72
2023-01-21T17:50:12.652Z,96912.38
2023-01-21T17:52:40.056Z,96932.31
2023-01-21T17:55:28.461Z,96915.78
2023-01-21T17:57:56.163Z,96917.13
2023-01-21T18:00:30.972Z,96927.28
2023-01-21T18:02:58.198Z,96917.09
2023-01-21T18:05:25.122Z,96925.50
2023-01-21T18:07:52.305Z,96922.03
2023-01-21T18:10:24.363Z,96923.75
2023-01-21T18:12:51.602Z,96927.03
2023-01-21T18:15:20.625Z,96919.13
2023-01-21T18:17:58.704Z,96919.13
2023-01-21T18:20:28.680Z,96915.50
2023-01-21T18:22:57.486Z,96918.94
2023-01-21T18:25:27.732Z,96912.91
2023-01-21T18:27:55.037Z,96917.41
2023-01-21T18:30:25.280Z,96919.34
2023-01-21T18:32:53.263Z,96902.50
2023-01-21T18:35:21.900Z,96914.91
2023-01-21T18:37:48.961Z,96896.19
2023-01-21T18:40:21.583Z,96930.69
2023-01-21T18:42:50.990Z,96922.75
2023-01-21T18:45:23.035Z,96923.41
2023-01-21T18:47:50.979Z,96927.81
2023-01-21T18:50:22.012Z,96917.88
2023-01-21T18:52:49.023Z,96949.13
2023-01-21T18:55:17.665Z,96932.53
2023-01-21T18:57:47.695Z,96937.38
2023-01-21T19:00:24.575Z,96947.41
2023-01-21T19:02:53.911Z,96944.13
2023-01-21T19:05:28.111Z,96935.09
2023-01-21T19:07:55.023Z,96938.03
2023-01-21T19:10:21.974Z,96922.00
2023-01-21T19:12:49.215Z,96928.72
2023-01-21T19:15:19.466Z,96917.13
2023-01-21T19:17:47.724Z,96928.56
2023-01-21T19:20:25.663Z,96928.56
2023-01-21T19:22:57.300Z,96927.69
2023-01-21T19:25:26.366Z,96936.50
2023-01-21T19:27:55.987Z,96943.44
2023-01-21T19:30:31.585Z,96938.31
2023-01-21T19:33:01.648Z,96944.69
2023-01-21T19:35:32.459Z,96944.34
2023-01-21T19:38:05.061Z,96945.31
2023-01-21T19:40:31.999Z,96952.84
2023-01-21T19:42:59.018Z,96948.72
2023-01-21T19:45:28.775Z,96952.84
2023-01-21T19:47:55.555Z,96961.50
2023-01-21T19:50:25.430Z,96960.16
2023-01-21T19:52:54.331Z,96963.91
2023-01-21T19:55:26.033Z,96962.25
2023-01-21T19:57:57.485Z,96964.34
2023-01-21T20:00:26.820Z,96967.69
2023-01-21T20:02:53.601Z,96961.78
2023-01-21T20:05:21.233Z,96974.84
2023-01-21T20:07:50.893Z,96978.75
2023-01-21T20:10:20.874Z,96982.50
2023-01-21T20:12:48.899Z,96962.94
2023-01-21T20:15:16.858Z,96963.25
2023-01-21T20:17:51.178Z,96962.72
2023-01-21T20:20:23.638Z,96968.28
2023-01-21T20:22:51.467Z,96967.97
2023-01-21T20:25:21.073Z,96981.00
2023-01-21T20:27:58.945Z,96974.38
2023-01-21T20:30:28.117Z,96973.50
2023-01-21T20:32:55.977Z,96979.66
2023-01-21T20:35:26.736Z,96979.59
2023-01-21T20:37:55.817Z,96988.25
2023-01-21T20:40:29.274Z,96983.16
2023-01-21T20:42:57.574Z,96992.75
2023-01-21T20:45:30.681Z,96984.69
2023-01-21T20:48:01.138Z,96992.06
2023-01-21T20:50:34.142Z,96989.31
2023-01-21T20:53:02.335Z,96979.28
2023-01-21T20:55:31.294Z,96984.84
2023-01-21T20:58:23.934Z,96982.28
2023-01-21T21:00:49.884Z,96979.28
2023-01-21T21:03:18.498Z,96984.03
2023-01-21T21:05:59.289Z,96992.06
2023-01-21T21:08:31.681Z,96991.25
2023-01-21T21:11:02.026Z,97001.72
2023-01-21T21:13:29.473Z,96993.94
2023-01-21T21:35:44.986Z,97023.63
2023-01-21T21:38:38.774Z,97060.78
2023-01-21T21:41:55.685Z,97038.97
2023-01-21T21:44:22.601Z,97040.94
2023-01-21T21:47:08.143Z,97053.22
2023-01-21T21:49:34.928Z,97049.75
2023-01-21T21:52:02.013Z,97042.66
2023-01-21T21:54:28.706Z,97030.03
2023-01-21T21:56:55.566Z,97022.94
2023-01-21T21:59:22.317Z,97023.69
2023-01-21T22:01:49.562Z,97033.19
2023-01-21T22:04:16.387Z,97032.44
2023-01-21T22:06:43.402Z,97045.03
2023-01-21T22:09:11.993Z,97032.44
2023-01-21T22:12:06.730Z,97044.94
2023-01-21T22:14:34.168Z,97030.59
2023-01-21T22:17:01.059Z,97033.84
2023-01-21T22:19:27.744Z,97070.09
2023-01-21T22:21:57.683Z,97066.69
2023-01-21T22:24:24.435Z,97060.94
2023-01-21T22:26:51.096Z,97059.38
2023-01-21T22:29:17.936Z,97058.28
2023-01-21T22:31:44.717Z,97062.28
2023-01-21T22:34:11.744Z,97084.31
2023-01-21T22:36:38.611Z,97064.63
2023-01-21T22:39:05.333Z,97069.88
2023-01-21T22:41:32.542Z,97048.53
2023-01-21T22:43:59.267Z,97050.75
2023-01-21T22:46:30.324Z,97056.31
2023-01-21T22:49:00.543Z,97056.47
2023-01-21T22:51:27.782Z,97053.44
2023-01-21T22:53:55.086Z,97061.63
2023-01-21T22:56:39.982Z,97063.03
2023-01-21T22:59:10.799Z,97065.81
2023-01-21T23:01:37.612Z,97077.47
2023-01-21T23:04:04.733Z,97072.91
2023-01-21T23:06:31.588Z,97074.56
2023-01-21T23:08:58.445Z,97076.38
2023-01-21T23:11:25.436Z,97061.03
2023-01-21T23:13:54.516Z,97097.91
2023-01-21T23:16:21.949Z,97096.66
2023-01-21T23:18:48.912Z,97092.75
2023-01-21T23:21:21.241Z,97099.41
2023-01-21T23:23:49.300Z,97100.53
2023-01-21T23:26:19.305Z,97092.66
2023-01-21T23:28:46.573Z,97104.72
2023-01-21T23:31:17.087Z,97083.09
2023-01-21T23:33:43.896Z,97082.56
2023-01-21T23:36:13.776Z,97088.44
2023-01-21T23:38:41.956Z,97056.31
2023-01-21T23:41:11.725Z,97025.59
2023-01-21T23:43:39.521Z,97021.75
2023-01-21T23:46:08.054Z,97066.72
2023-01-21T23:48:34.805Z,97081.38
2023-01-21T23:51:07.149Z,97112.91
2023-01-21T23:53:34.736Z,97128.09
2023-01-21T23:56:11.159Z,97130.97
2023-01-21T23:58:37.940Z,97130.16
